createdAt,value
2022-08-14T00:01:14.726Z,22.20
2022-08-14T00:03:50.960Z,22.10
2022-08-14T00:06:29.087Z,22.00
2022-08-14T00:08:59.230Z,22.10
2022-08-14T00:11:33.697Z,22.10
2022-08-14T00:14:02.077Z,22.10
2022-08-14T00:16:41.418Z,22.10
2022-08-14T00:19:19.617Z,22.10
2022-08-14T00:21:58.705Z,22.10
2022-08-14T00:24:32.715Z,22.10
2022-08-14T00:27:02.820Z,22.10
2022-08-14T00:29:30.834Z,22.20
2022-08-14T00:32:55.678Z,22.20
2022-08-14T00:35:07.670Z,22.30
2022-08-14T00:37:47.725Z,22.30
2022-08-14T00:40:27.399Z,22.30
2022-08-14T00:43:08.009Z,22.30
2022-08-14T00:45:35.514Z,22.30
2022-08-14T00:48:03.756Z,22.30
2022-08-14T00:50:37.772Z,22.20
2022-08-14T00:53:05.345Z,22.20
2022-08-14T00:55:48.756Z,22.10
2022-08-14T00:58:44.921Z,22.10
2022-08-14T01:01:21.958Z,22.00
2022-08-14T01:03:55.695Z,21.90
2022-08-14T01:06:23.709Z,21.90
2022-08-14T01:09:04.700Z,21.80
2022-08-14T01:11:35.375Z,21.70
2022-08-14T01:14:18.197Z,21.70
2022-08-14T01:16:57.713Z,21.70
2022-08-14T01:19:50.691Z,21.70
2022-08-14T01:22:20.887Z,21.60
2022-08-14T01:25:00.701Z,21.60
2022-08-14T01:27:30.298Z,21.60
2022-08-14T01:30:10.747Z,21.60
2022-08-14T01:32:51.231Z,21.50
2022-08-14T01:36:02.809Z,21.40
2022-08-14T01:38:15.307Z,21.40
2022-08-14T01:40:53.696Z,21.40
2022-08-14T01:43:22.116Z,21.30
2022-08-14T01:46:06.493Z,21.20
2022-08-14T01:48:37.621Z,21.20
2022-08-14T01:51:20.126Z,21.20
2022-08-14T01:53:50.400Z,21.30
2022-08-14T01:56:30.607Z,21.30
2022-08-14T01:59:39.766Z,21.30
2022-08-14T02:02:20.795Z,21.20
2022-08-14T02:04:57.202Z,21.10
2022-08-14T02:07:53.451Z,21.10
2022-08-14T02:10:18.686Z,21.00
2022-08-14T02:13:00.801Z,20.90
2022-08-14T02:15:28.790Z,20.90
2022-08-14T02:18:02.728Z,20.90
2022-08-14T02:20:32.272Z,20.90
2022-08-14T02:23:08.367Z,20.90
2022-08-14T02:25:36.393Z,20.80
2022-08-14T02:28:24.233Z,20.90
2022-08-14T02:30:57.398Z,20.90
2022-08-14T02:33:33.724Z,20.90
2022-08-14T02:37:02.417Z,20.90
2022-08-14T02:38:59.722Z,20.90
2022-08-14T02:41:28.803Z,20.90
2022-08-14T02:44:02.723Z,20.90
2022-08-14T02:46:32.170Z,20.90
2022-08-14T02:49:06.771Z,20.90
2022-08-14T02:51:34.259Z,20.90
2022-08-14T02:54:01.943Z,21.00
2022-08-14T02:57:13.946Z,21.00
2022-08-14T02:59:33.747Z,21.00
2022-08-14T03:02:09.161Z,21.00
2022-08-14T03:05:02.763Z,21.00
2022-08-14T03:07:29.757Z,21.00
2022-08-14T03:10:26.165Z,21.00
2022-08-14T03:12:51.053Z,20.90
2022-08-14T03:15:25.755Z,20.90
2022-08-14T03:17:57.876Z,20.90
2022-08-14T03:20:34.798Z,20.80
2022-08-14T03:23:03.016Z,20.80
2022-08-14T03:25:39.767Z,20.80
2022-08-14T03:28:33.176Z,20.70
2022-08-14T03:31:08.472Z,20.70
2022-08-14T03:33:51.879Z,20.70
2022-08-14T03:37:38.763Z,20.70
2022-08-14T03:39:22.893Z,20.70
2022-08-14T03:41:55.306Z,20.70
2022-08-14T03:45:20.281Z,20.70
2022-08-14T03:47:16.747Z,20.80
2022-08-14T03:49:52.777Z,20.80
2022-08-14T03:52:40.810Z,20.80
2022-08-14T03:55:20.742Z,20.80
2022-08-14T03:57:54.806Z,20.90
2022-08-14T04:00:44.375Z,20.90
2022-08-14T04:03:26.798Z,21.00
2022-08-14T04:05:56.100Z,20.90
2022-08-14T04:08:31.593Z,21.00
2022-08-14T04:11:01.658Z,21.00
2022-08-14T04:13:39.772Z,21.00
2022-08-14T04:16:13.014Z,21.00
2022-08-14T04:18:47.802Z,21.10
2022-08-14T04:21:16.237Z,21.10
2022-08-14T04:23:57.512Z,21.20
2022-08-14T04:26:42.997Z,21.20
2022-08-14T04:29:15.376Z,21.20
2022-08-14T04:32:58.391Z,21.20
2022-08-14T04:34:42.180Z,21.20
2022-08-14T04:37:34.803Z,21.20
2022-08-14T04:40:20.022Z,21.20
2022-08-14T04:43:14.319Z,21.30
2022-08-14T04:45:44.223Z,21.30
2022-08-14T04:48:39.292Z,21.40
2022-08-14T04:51:10.034Z,21.40
2022-08-14T04:53:46.788Z,21.40
2022-08-14T04:56:30.817Z,21.40
2022-08-14T04:59:12.763Z,21.40
2022-08-14T05:01:53.976Z,21.40
2022-08-14T05:04:31.817Z,21.40
2022-08-14T05:06:58.805Z,21.40
2022-08-14T05:09:32.783Z,21.40
2022-08-14T05:13:02.863Z,21.40
2022-08-14T05:14:54.960Z,21.40
2022-08-14T05:17:32.047Z,21.40
2022-08-14T05:21:54.259Z,21.40
2022-08-14T05:23:05.668Z,21.40
2022-08-14T05:25:44.796Z,21.40
2022-08-14T05:28:19.012Z,21.40
2022-08-14T05:30:54.784Z,21.40
2022-08-14T05:33:30.798Z,21.40
2022-08-14T05:36:01.599Z,21.50
2022-08-14T05:38:40.797Z,21.50
2022-08-14T05:41:13.088Z,21.50
2022-08-14T05:43:47.837Z,21.50
2022-08-14T05:46:23.927Z,21.50
2022-08-14T05:48:59.805Z,21.60
2022-08-14T05:51:27.492Z,21.60
2022-08-14T05:54:13.877Z,21.60
2022-08-14T05:56:47.788Z,21.60
2022-08-14T05:59:21.806Z,21.70
2022-08-14T06:02:11.228Z,21.70
2022-08-14T06:04:45.798Z,21.70
2022-08-14T06:07:12.722Z,21.70
2022-08-14T06:09:52.216Z,21.70
2022-08-14T06:12:55.086Z,21.70
2022-08-14T06:15:14.775Z,21.70
2022-08-14T06:17:56.633Z,21.70
2022-08-14T06:20:34.162Z,21.70
2022-08-14T06:23:01.435Z,21.60
2022-08-14T06:25:35.919Z,21.60
2022-08-14T06:28:03.998Z,21.60
2022-08-14T06:30:46.552Z,21.60
2022-08-14T06:33:15.727Z,21.70
2022-08-14T06:35:49.872Z,21.80
2022-08-14T06:38:21.645Z,21.80
2022-08-14T06:41:02.728Z,21.90
2022-08-14T06:43:33.111Z,21.90
2022-08-14T06:46:12.905Z,21.90
2022-08-14T06:48:50.630Z,21.90
2022-08-14T06:51:23.841Z,22.00
2022-08-14T06:53:50.900Z,22.00
2022-08-14T06:56:24.860Z,22.10
2022-08-14T06:58:51.801Z,22.10
2022-08-14T07:01:49.882Z,22.10
2022-08-14T07:04:41.843Z,22.10
2022-08-14T07:07:08.845Z,22.20
2022-08-14T07:09:50.949Z,22.30
2022-08-14T07:12:54.948Z,22.30
2022-08-14T07:15:14.237Z,22.40
2022-08-14T07:17:45.360Z,22.40
2022-08-14T07:20:19.861Z,22.40
2022-08-14T07:23:05.356Z,22.50
2022-08-14T07:25:43.712Z,22.50
2022-08-14T07:28:26.363Z,22.60
2022-08-14T07:31:05.839Z,22.60
2022-08-14T07:33:37.907Z,22.60
2022-08-14T07:36:27.528Z,22.70
2022-08-14T07:38:59.119Z,22.70
2022-08-14T07:41:33.825Z,22.80
2022-08-14T07:44:22.440Z,22.80
2022-08-14T07:46:56.122Z,22.90
2022-08-14T07:49:24.142Z,22.90
2022-08-14T07:51:59.045Z,22.90
2022-08-14T07:54:30.121Z,23.00
2022-08-14T07:57:12.656Z,23.00
2022-08-14T08:00:02.866Z,23.00
2022-08-14T08:02:45.985Z,23.10
2022-08-14T08:05:13.765Z,23.10
2022-08-14T08:07:49.366Z,23.10
2022-08-14T08:11:01.342Z,23.10
2022-08-14T08:13:28.586Z,23.20
2022-08-14T08:16:05.817Z,23.20
2022-08-14T08:18:33.258Z,23.30
2022-08-14T08:21:03.204Z,23.30
2022-08-14T08:23:40.757Z,23.40
2022-08-14T08:26:10.703Z,23.40
2022-08-14T08:28:44.116Z,23.50
2022-08-14T08:31:12.912Z,23.60
2022-08-14T08:33:49.827Z,23.70
2022-08-14T08:36:23.843Z,23.80
2022-08-14T08:39:17.531Z,23.90
2022-08-14T08:41:53.730Z,24.10
2022-08-14T08:44:32.824Z,24.20
2022-08-14T08:47:14.813Z,24.30
2022-08-14T08:49:59.020Z,24.40
2022-08-14T08:52:36.004Z,24.40
2022-08-14T08:55:13.741Z,24.50
2022-08-14T08:57:41.535Z,24.50
2022-08-14T09:00:26.463Z,24.50
2022-08-14T09:03:06.941Z,24.60
2022-08-14T09:05:46.032Z,24.70
2022-08-14T09:08:26.476Z,24.80
2022-08-14T09:11:19.308Z,24.90
2022-08-14T09:13:58.891Z,25.00
2022-08-14T09:16:26.282Z,25.10
2022-08-14T09:19:00.872Z,25.20
2022-08-14T09:21:33.370Z,25.30
2022-08-14T09:24:28.504Z,25.40
2022-08-14T09:27:09.689Z,25.60
2022-08-14T09:29:54.136Z,25.70
2022-08-14T09:32:58.924Z,25.80
2022-08-14T09:35:56.639Z,26.00
2022-08-14T09:38:40.452Z,26.10
2022-08-14T09:41:19.961Z,25.90
2022-08-14T09:44:06.405Z,25.70
2022-08-14T09:46:34.761Z,25.60
2022-08-14T09:49:16.245Z,25.50
2022-08-14T09:51:58.861Z,25.40
2022-08-14T09:54:47.993Z,25.30
2022-08-14T09:57:33.830Z,25.20
2022-08-14T10:00:30.386Z,25.20
2022-08-14T10:03:06.107Z,25.30
2022-08-14T10:05:41.863Z,25.60
2022-08-14T10:08:26.128Z,26.00
2022-08-14T10:11:02.715Z,26.50
2022-08-14T10:13:37.205Z,26.90
2022-08-14T10:16:33.231Z,27.10
2022-08-14T10:19:15.945Z,27.30
2022-08-14T10:21:58.836Z,27.60
2022-08-14T10:24:42.126Z,27.80
2022-08-14T10:27:19.466Z,28.10
2022-08-14T10:29:58.330Z,28.40
2022-08-14T10:32:29.255Z,28.60
2022-08-14T10:35:15.147Z,28.70
2022-08-14T10:37:48.704Z,28.90
2022-08-14T10:40:44.275Z,29.00
2022-08-14T10:43:24.924Z,29.20
2022-08-14T10:46:03.426Z,29.20
2022-08-14T10:49:01.873Z,29.00
2022-08-14T10:51:30.311Z,28.90
2022-08-14T10:54:35.112Z,29.00
2022-08-14T10:57:15.510Z,29.20
2022-08-14T10:59:54.910Z,29.40
2022-08-14T11:02:44.853Z,29.70
2022-08-14T11:05:26.855Z,30.00
2022-08-14T11:08:01.891Z,30.30
2022-08-14T11:11:02.860Z,30.40
2022-08-14T11:13:37.907Z,30.50
2022-08-14T11:16:05.214Z,30.70
2022-08-14T11:18:40.879Z,30.90
2022-08-14T11:21:09.374Z,31.00
2022-08-14T11:23:44.884Z,31.20
2022-08-14T11:26:19.260Z,31.40
2022-08-14T11:28:53.884Z,31.60
2022-08-14T11:31:38.610Z,31.70
2022-08-14T11:34:31.960Z,31.80
2022-08-14T11:37:20.806Z,31.80
2022-08-14T11:39:53.926Z,31.80
2022-08-14T11:42:58.114Z,32.00
2022-08-14T11:45:17.223Z,32.00
2022-08-14T11:48:13.003Z,32.20
2022-08-14T11:50:39.814Z,32.30
2022-08-14T11:53:13.894Z,32.30
2022-08-14T11:55:47.905Z,32.30
2022-08-14T11:58:24.884Z,32.20
2022-08-14T12:01:04.683Z,32.00
2022-08-14T12:03:51.693Z,31.80
2022-08-14T12:06:29.230Z,31.50
2022-08-14T12:09:15.126Z,31.30
2022-08-14T12:11:47.525Z,31.00
2022-08-14T12:14:31.067Z,30.80
2022-08-14T12:17:11.700Z,30.60
2022-08-14T12:19:54.077Z,30.30
2022-08-14T12:22:34.554Z,30.00
2022-08-14T12:25:11.365Z,29.70
2022-08-14T12:27:46.761Z,29.50
2022-08-14T12:30:39.695Z,29.40
2022-08-14T12:33:30.633Z,29.20
2022-08-14T12:36:07.955Z,29.10
2022-08-14T12:38:38.541Z,29.00
2022-08-14T12:41:24.120Z,28.90
2022-08-14T12:43:59.583Z,28.80
2022-08-14T12:46:35.954Z,28.70
2022-08-14T12:49:06.465Z,28.60
2022-08-14T12:51:42.725Z,28.50
2022-08-14T12:54:26.064Z,28.40
2022-08-14T12:57:18.759Z,28.40
2022-08-14T12:59:53.910Z,28.40
2022-08-14T13:02:54.988Z,28.60
2022-08-14T13:05:33.399Z,29.00
2022-08-14T13:08:10.665Z,29.40
2022-08-14T13:10:58.234Z,29.60
2022-08-14T13:13:44.611Z,29.90
2022-08-14T13:16:38.132Z,30.20
2022-08-14T13:19:14.951Z,30.50
2022-08-14T13:22:04.779Z,30.70
2022-08-14T13:24:39.451Z,30.90
2022-08-14T13:27:13.905Z,31.10
2022-08-14T13:29:47.173Z,31.10
2022-08-14T13:32:21.996Z,31.00
2022-08-14T13:34:55.923Z,30.80
2022-08-14T13:37:23.835Z,30.60
2022-08-14T13:40:00.073Z,30.50
2022-08-14T13:42:30.483Z,30.60
2022-08-14T13:45:06.050Z,30.70
2022-08-14T13:47:33.348Z,30.80
2022-08-14T13:50:09.048Z,30.90
2022-08-14T13:53:03.649Z,31.00
2022-08-14T13:55:31.557Z,31.00
2022-08-14T13:58:30.050Z,30.80
2022-08-14T14:01:02.446Z,30.50
2022-08-14T14:03:42.013Z,30.20
2022-08-14T14:06:09.592Z,29.80
2022-08-14T14:08:48.063Z,29.50
2022-08-14T14:11:16.945Z,29.20
2022-08-14T14:13:50.946Z,29.00
2022-08-14T14:16:22.044Z,28.80
2022-08-14T14:19:09.444Z,28.60
2022-08-14T14:21:43.966Z,28.50
2022-08-14T14:24:17.935Z,28.30
2022-08-14T14:26:54.981Z,28.30
2022-08-14T14:29:36.797Z,28.10
2022-08-14T14:32:21.611Z,28.00
2022-08-14T14:34:55.965Z,28.00
2022-08-14T14:37:25.187Z,27.90
2022-08-14T14:40:52.184Z,27.90
2022-08-14T14:42:51.827Z,28.00
2022-08-14T14:45:27.956Z,28.10
2022-08-14T14:47:59.201Z,28.40
2022-08-14T14:50:32.972Z,28.60
2022-08-14T14:53:13.009Z,28.80
2022-08-14T14:56:47.342Z,28.90
2022-08-14T14:58:37.014Z,29.00
2022-08-14T15:01:12.089Z,29.00
2022-08-14T15:03:46.555Z,29.00
2022-08-14T15:06:20.986Z,28.80
2022-08-14T15:08:55.490Z,28.80
2022-08-14T15:11:31.878Z,28.70
2022-08-14T15:14:56.068Z,28.60
2022-08-14T15:16:52.889Z,28.50
2022-08-14T15:19:28.945Z,28.50
2022-08-14T15:21:56.263Z,28.40
2022-08-14T15:24:29.958Z,28.40
2022-08-14T15:26:58.745Z,28.40
2022-08-14T15:29:32.973Z,28.50
2022-08-14T15:32:01.219Z,28.50
2022-08-14T15:34:50.927Z,28.50
2022-08-14T15:37:25.969Z,28.40
2022-08-14T15:40:02.248Z,28.40
2022-08-14T15:42:37.053Z,28.30
2022-08-14T15:45:12.893Z,28.20
2022-08-14T15:47:51.738Z,28.10
2022-08-14T15:50:19.301Z,28.00
2022-08-14T15:52:53.982Z,27.90
2022-08-14T15:55:23.119Z,27.80
2022-08-14T15:58:03.193Z,27.80
2022-08-14T16:01:10.040Z,27.70
2022-08-14T16:03:46.851Z,27.70
2022-08-14T16:06:24.035Z,27.60
2022-08-14T16:08:57.688Z,27.60
2022-08-14T16:11:34.015Z,27.60
2022-08-14T16:14:10.964Z,27.60
2022-08-14T16:16:51.535Z,27.50
2022-08-14T16:19:27.682Z,27.50
2022-08-14T16:22:58.042Z,27.50
2022-08-14T16:25:02.669Z,27.50
2022-08-14T16:27:40.751Z,27.40
2022-08-14T16:30:24.878Z,27.40
2022-08-14T16:33:03.186Z,27.40
2022-08-14T16:35:55.648Z,27.30
2022-08-14T16:38:46.084Z,27.30
2022-08-14T16:41:33.029Z,27.30
2022-08-14T16:44:13.607Z,27.20
2022-08-14T16:46:57.968Z,27.20
2022-08-14T16:50:03.325Z,27.10
2022-08-14T16:52:25.975Z,27.10
2022-08-14T16:55:11.147Z,27.10
2022-08-14T16:58:04.020Z,27.00
2022-08-14T17:00:45.226Z,27.00
2022-08-14T17:03:18.995Z,27.00
2022-08-14T17:05:48.414Z,26.90
2022-08-14T17:08:33.330Z,26.90
2022-08-14T17:11:19.991Z,26.90
2022-08-14T17:14:00.544Z,26.80
2022-08-14T17:16:35.683Z,26.80
2022-08-14T17:19:14.076Z,26.80
2022-08-14T17:21:47.511Z,26.70
2022-08-14T17:24:51.683Z,26.70
2022-08-14T17:27:19.039Z,26.70
2022-08-14T17:29:56.672Z,26.60
2022-08-14T17:32:44.795Z,26.60
2022-08-14T17:35:38.939Z,26.60
2022-08-14T17:38:39.019Z,26.50
2022-08-14T17:41:37.447Z,26.50
2022-08-14T17:44:33.369Z,26.40
2022-08-14T17:47:07.068Z,26.40
2022-08-14T17:49:42.076Z,26.30
2022-08-14T17:52:19.010Z,26.30
2022-08-14T17:55:03.419Z,26.20
2022-08-14T17:57:41.224Z,26.20
2022-08-14T18:00:14.661Z,26.20
2022-08-14T18:02:56.050Z,26.10
2022-08-14T18:06:07.368Z,26.10
2022-08-14T18:08:32.460Z,26.10
2022-08-14T18:11:07.058Z,26.00
2022-08-14T18:13:51.946Z,25.90
2022-08-14T18:16:29.805Z,25.80
2022-08-14T18:19:04.005Z,25.70
2022-08-14T18:21:56.358Z,25.70
2022-08-14T18:24:31.654Z,25.60
2022-08-14T18:27:08.688Z,25.60
2022-08-14T18:29:54.745Z,25.50
2022-08-14T18:32:31.906Z,25.50
2022-08-14T18:35:11.231Z,25.40
2022-08-14T18:37:40.802Z,25.40
2022-08-14T18:40:33.426Z,25.40
2022-08-14T18:43:09.042Z,25.30
2022-08-14T18:45:46.046Z,25.30
2022-08-14T18:48:19.893Z,25.20
2022-08-14T18:50:58.094Z,25.10
2022-08-14T18:53:34.367Z,25.10
2022-08-14T18:56:09.939Z,25.00
2022-08-14T18:58:59.051Z,25.00
2022-08-14T19:01:34.216Z,24.90
2022-08-14T19:04:09.053Z,24.90
2022-08-14T19:06:44.746Z,24.90
2022-08-14T19:09:37.026Z,24.80
2022-08-14T19:12:07.545Z,24.80
2022-08-14T19:14:54.046Z,24.70
2022-08-14T19:17:41.487Z,24.70
2022-08-14T19:20:16.003Z,24.70
2022-08-14T19:22:43.366Z,24.70
2022-08-14T19:25:19.058Z,24.70
2022-08-14T19:28:09.876Z,24.60
2022-08-14T19:30:43.007Z,24.60
2022-08-14T19:33:34.579Z,24.60
2022-08-14T19:36:28.937Z,24.50
2022-08-14T19:39:04.063Z,24.50
2022-08-14T19:41:51.847Z,24.50
2022-08-14T19:44:31.911Z,24.50
2022-08-14T19:47:04.834Z,24.50
2022-08-14T19:50:30.312Z,24.40
2022-08-14T19:52:29.798Z,24.40
2022-08-14T19:55:05.032Z,24.30
2022-08-14T19:57:31.946Z,24.30
2022-08-14T20:00:28.716Z,24.20
2022-08-14T20:03:10.231Z,24.20
2022-08-14T20:05:46.818Z,24.20
2022-08-14T20:10:58.349Z,24.20
2022-08-14T20:11:20.538Z,24.20
2022-08-14T20:13:56.943Z,24.10
2022-08-14T20:16:59.436Z,24.10
2022-08-14T20:19:37.293Z,24.10
2022-08-14T20:22:37.146Z,24.10
2022-08-14T20:25:16.748Z,24.10
2022-08-14T20:27:58.718Z,24.10
2022-08-14T20:30:35.056Z,24.10
2022-08-14T20:33:13.063Z,24.10
2022-08-14T20:35:40.059Z,24.10
2022-08-14T20:38:30.348Z,24.10
2022-08-14T20:41:07.608Z,24.10
2022-08-14T20:44:06.539Z,24.10
2022-08-14T20:46:38.811Z,24.10
2022-08-14T20:49:13.027Z,24.00
2022-08-14T20:51:58.978Z,24.00
2022-08-14T20:54:34.123Z,24.00
2022-08-14T20:57:07.273Z,23.90
2022-08-14T20:59:47.146Z,23.90
2022-08-14T21:02:50.421Z,23.90
2022-08-14T21:05:34.086Z,23.90
2022-08-14T21:08:08.343Z,23.90
2022-08-14T21:10:56.674Z,23.90
2022-08-14T21:14:19.006Z,23.90
2022-08-14T21:16:35.802Z,23.90
2022-08-14T21:19:05.027Z,23.80
2022-08-14T21:21:41.755Z,23.80
2022-08-14T21:24:39.309Z,23.70
2022-08-14T21:27:13.075Z,23.70
2022-08-14T21:29:55.638Z,23.60
2022-08-14T21:32:33.648Z,23.60
2022-08-14T21:35:10.102Z,23.60
2022-08-14T21:37:44.074Z,23.50
2022-08-14T21:40:39.972Z,23.40
2022-08-14T21:43:18.378Z,23.40
2022-08-14T21:45:55.858Z,23.30
2022-08-14T21:48:29.406Z,23.20
2022-08-14T21:51:54.640Z,23.20
2022-08-14T21:53:58.633Z,23.10
2022-08-14T21:56:39.173Z,23.10
2022-08-14T21:59:23.361Z,23.10
2022-08-14T22:02:00.927Z,23.10
2022-08-14T22:04:46.091Z,23.00
2022-08-14T22:07:29.386Z,22.90
2022-08-14T22:09:58.558Z,22.80
2022-08-14T22:12:58.827Z,22.80
2022-08-14T22:15:26.062Z,22.80
2022-08-14T22:18:00.110Z,22.90
2022-08-14T22:20:29.269Z,22.90
2022-08-14T22:23:04.088Z,22.90
2022-08-14T22:25:41.128Z,22.80
2022-08-14T22:28:10.629Z,22.80
2022-08-14T22:30:44.155Z,22.70
2022-08-14T22:33:13.493Z,22.60
2022-08-14T22:35:56.438Z,22.60
2022-08-14T22:38:35.567Z,22.60
2022-08-14T22:41:25.465Z,22.60
2022-08-14T22:44:06.599Z,22.50
2022-08-14T22:46:43.285Z,22.40
2022-08-14T22:50:30.813Z,22.40
2022-08-14T22:52:32.000Z,22.30
2022-08-14T22:55:01.130Z,22.30
2022-08-14T22:57:37.346Z,22.30
2022-08-14T23:00:20.128Z,22.30
2022-08-14T23:03:17.184Z,22.30
2022-08-14T23:05:51.761Z,22.30
2022-08-14T23:08:56.276Z,22.30
2022-08-14T23:11:14.152Z,22.20
2022-08-14T23:13:43.684Z,22.20
2022-08-14T23:16:25.187Z,22.10
2022-08-14T23:18:53.846Z,22.10
2022-08-14T23:21:29.175Z,22.00
2022-08-14T23:23:57.389Z,22.00
2022-08-14T23:26:49.059Z,22.00
2022-08-14T23:29:20.629Z,22.00
2022-08-14T23:31:55.111Z,22.00
2022-08-14T23:34:29.367Z,22.00
2022-08-14T23:36:57.402Z,22.00
2022-08-14T23:39:39.073Z,22.10
2022-08-14T23:42:08.555Z,22.10
2022-08-14T23:44:45.897Z,22.10
2022-08-14T23:47:26.400Z,22.10
2022-08-14T23:50:04.197Z,22.10
2022-08-14T23:52:56.257Z,22.00
2022-08-14T23:55:32.478Z,22.00
2022-08-14T23:58:07.835Z,21.90
